sensor_id;sensor_type;location;lat;lon;timestamp;pressure;altitude;pressure_sealevel;temperature;humidity
16451;BME280;12243;42.708;23.310;2024-01-30T00:01:58;96972.47;;;0.24;78.23
16451;BME280;12243;42.708;23.310;2024-01-30T00:04:25;96980.09;;;0.30;77.76
16451;BME280;12243;42.708;23.310;2024-01-30T00:06:51;96980.31;;;0.09;78.98
16451;BME280;12243;42.708;23.310;2024-01-30T00:09:20;96973.53;;;0.05;79.76
16451;BME280;12243;42.708;23.310;2024-01-30T00:11:47;96979.47;;;0.07;79.64
16451;BME280;12243;42.708;23.310;2024-01-30T00:14:14;96977.69;;;0.18;79.17
16451;BME280;12243;42.708;23.310;2024-01-30T00:16:41;96984.47;;;0.22;78.37
16451;BME280;12243;42.708;23.310;2024-01-30T00:19:08;96986.13;;;0.26;78.38
16451;BME280;12243;42.708;23.310;2024-01-30T00:21:35;96984.44;;;0.25;78.67
16451;BME280;12243;42.708;23.310;2024-01-30T00:24:02;96987.94;;;0.18;78.31
16451;BME280;12243;42.708;23.310;2024-01-30T00:26:30;96983.63;;;0.20;79.00
16451;BME280;12243;42.708;23.310;2024-01-30T00:28:57;96979.47;;;0.11;78.63
16451;BME280;12243;42.708;23.310;2024-01-30T00:31:24;96976.88;;;0.10;78.76
16451;BME280;12243;42.708;23.310;2024-01-30T00:33:51;96975.13;;;0.16;78.08
16451;BME280;12243;42.708;23.310;2024-01-30T00:36:18;96981.34;;;-0.08;79.58
16451;BME280;12243;42.708;23.310;2024-01-30T00:38:45;96979.50;;;0.05;78.43
16451;BME280;12243;42.708;23.310;2024-01-30T00:41:11;96977.72;;;0.15;78.09
16451;BME280;12243;42.708;23.310;2024-01-30T00:43:40;96977.75;;;0.09;78.55
16451;BME280;12243;42.708;23.310;2024-01-30T00:46:06;96967.66;;;-0.05;78.55
16451;BME280;12243;42.708;23.310;2024-01-30T00:48:33;96965.91;;;-0.02;77.90
16451;BME280;12243;42.708;23.310;2024-01-30T00:51:00;96978.75;;;-0.03;77.99
16451;BME280;12243;42.708;23.310;2024-01-30T00:53:27;96967.63;;;-0.04;77.83
16451;BME280;12243;42.708;23.310;2024-01-30T00:55:54;96971.81;;;0.07;78.17
16451;BME280;12243;42.708;23.310;2024-01-30T00:58:21;96976.03;;;0.11;77.68
16451;BME280;12243;42.708;23.310;2024-01-30T01:00:49;96971.09;;;-0.08;78.49
16451;BME280;12243;42.708;23.310;2024-01-30T01:03:16;96974.41;;;0.04;78.63
16451;BME280;12243;42.708;23.310;2024-01-30T01:05:42;96976.19;;;-0.03;77.93
16451;BME280;12243;42.708;23.310;2024-01-30T01:08:09;96979.53;;;0.04;78.66
16451;BME280;12243;42.708;23.310;2024-01-30T01:10:36;96979.53;;;0.04;78.71
16451;BME280;12243;42.708;23.310;2024-01-30T01:13:03;96978.72;;;0.00;78.18
16451;BME280;12243;42.708;23.310;2024-01-30T01:15:30;96978.75;;;-0.05;77.77
16451;BME280;12243;42.708;23.310;2024-01-30T01:17:58;96976.19;;;-0.05;77.81
16451;BME280;12243;42.708;23.310;2024-01-30T01:20:25;96974.53;;;-0.09;78.39
16451;BME280;12243;42.708;23.310;2024-01-30T01:22:52;96975.38;;;-0.08;78.27
16451;BME280;12243;42.708;23.310;2024-01-30T01:25:19;96976.47;;;-0.32;79.21
16451;BME280;12243;42.708;23.310;2024-01-30T01:27:46;96985.00;;;-0.33;80.03
16451;BME280;12243;42.708;23.310;2024-01-30T01:30:17;96979.81;;;-0.24;79.94
16451;BME280;12243;42.708;23.310;2024-01-30T01:32:48;96980.63;;;-0.20;79.22
16451;BME280;12243;42.708;23.310;2024-01-30T01:35:22;96985.66;;;-0.14;79.04
16451;BME280;12243;42.708;23.310;2024-01-30T01:37:50;96987.41;;;-0.16;79.21
16451;BME280;12243;42.708;23.310;2024-01-30T01:40:22;96982.28;;;-0.13;78.80
16451;BME280;12243;42.708;23.310;2024-01-30T01:42:49;96988.31;;;-0.20;78.92
16451;BME280;12243;42.708;23.310;2024-01-30T01:45:16;96986.56;;;-0.17;79.07
16451;BME280;12243;42.708;23.310;2024-01-30T01:47:43;96986.63;;;-0.25;80.03
16451;BME280;12243;42.708;23.310;2024-01-30T01:50:12;96980.59;;;-0.17;78.88
16451;BME280;12243;42.708;23.310;2024-01-30T01:52:41;96982.09;;;0.02;79.17
16451;BME280;12243;42.708;23.310;2024-01-30T01:55:08;96983.97;;;-0.15;79.74
16451;BME280;12243;42.708;23.310;2024-01-30T01:57:37;96991.59;;;-0.08;78.91
16451;BME280;12243;42.708;23.310;2024-01-30T02:00:05;96989.19;;;-0.23;79.55
16451;BME280;12243;42.708;23.310;2024-01-30T02:02:35;96990.00;;;-0.19;79.04
16451;BME280;12243;42.708;23.310;2024-01-30T02:05:03;96985.72;;;-0.19;79.27
16451;BME280;12243;42.708;23.310;2024-01-30T02:07:30;96990.75;;;-0.11;78.75
16451;BME280;12243;42.708;23.310;2024-01-30T02:09:59;96984.91;;;-0.22;78.90
16451;BME280;12243;42.708;23.310;2024-01-30T02:12:26;96994.38;;;-0.31;80.04
16451;BME280;12243;42.708;23.310;2024-01-30T02:14:52;96987.41;;;-0.16;79.24
16451;BME280;12243;42.708;23.310;2024-01-30T02:17:20;96990.91;;;-0.23;79.28
16451;BME280;12243;42.708;23.310;2024-01-30T02:19:48;97000.19;;;-0.13;78.30
16451;BME280;12243;42.708;23.310;2024-01-30T02:22:17;96986.63;;;-0.23;78.54
16451;BME280;12243;42.708;23.310;2024-01-30T02:24:44;96990.81;;;-0.16;78.42
16451;BME280;12243;42.708;23.310;2024-01-30T02:27:11;96991.63;;;-0.09;77.80
16451;BME280;12243;42.708;23.310;2024-01-30T02:29:38;96981.34;;;-0.08;77.36
16451;BME280;12243;42.708;23.310;2024-01-30T02:32:06;96981.28;;;-0.02;77.94
16451;BME280;12243;42.708;23.310;2024-01-30T02:34:33;96981.22;;;0.05;77.65
16451;BME280;12243;42.708;23.310;2024-01-30T02:36:59;96981.28;;;-0.02;77.91
16451;BME280;12243;42.708;23.310;2024-01-30T02:39:28;96985.56;;;-0.04;77.80
16451;BME280;12243;42.708;23.310;2024-01-30T02:41:55;96988.09;;;-0.01;77.93
16451;BME280;12243;42.708;23.310;2024-01-30T02:44:22;96984.59;;;0.07;78.24
16451;BME280;12243;42.708;23.310;2024-01-30T02:46:49;96986.28;;;0.11;77.68
16451;BME280;12243;42.708;23.310;2024-01-30T02:49:16;96982.59;;;0.35;76.15
16451;BME280;12243;42.708;23.310;2024-01-30T02:51:43;96987.09;;;0.13;76.37
16451;BME280;12243;42.708;23.310;2024-01-30T02:54:10;96981.09;;;0.17;76.50
16451;BME280;12243;42.708;23.310;2024-01-30T02:56:38;96979.38;;;0.19;76.84
16451;BME280;12243;42.708;23.310;2024-01-30T02:59:05;96986.09;;;0.29;75.97
16451;BME280;12243;42.708;23.310;2024-01-30T03:01:31;96985.25;;;0.29;76.39
16451;BME280;12243;42.708;23.310;2024-01-30T03:03:58;96984.44;;;0.25;76.63
16451;BME280;12243;42.708;23.310;2024-01-30T03:06:25;96979.28;;;0.28;76.06
16451;BME280;12243;42.708;23.310;2024-01-30T03:08:52;96976.00;;;0.14;76.35
16451;BME280;12243;42.708;23.310;2024-01-30T03:11:18;96978.56;;;0.15;77.38
16451;BME280;12243;42.708;23.310;2024-01-30T03:13:46;96972.63;;;0.12;76.90
16451;BME280;12243;42.708;23.310;2024-01-30T03:16:13;96971.72;;;0.16;76.52
16451;BME280;12243;42.708;23.310;2024-01-30T03:18:40;96973.50;;;0.11;76.65
16451;BME280;12243;42.708;23.310;2024-01-30T03:21:07;96975.16;;;0.13;77.23
16451;BME280;12243;42.708;23.310;2024-01-30T03:23:34;96974.97;;;0.32;75.76
16451;BME280;12243;42.708;23.310;2024-01-30T03:26:00;96975.94;;;0.20;75.55
16451;BME280;12243;42.708;23.310;2024-01-30T03:28:29;96982.88;;;0.12;76.25
16451;BME280;12243;42.708;23.310;2024-01-30T03:30:57;96982.78;;;0.21;75.90
16451;BME280;12243;42.708;23.310;2024-01-30T03:33:24;96968.34;;;0.12;75.94
16451;BME280;12243;42.708;23.310;2024-01-30T03:35:51;96964.06;;;0.13;75.17
16451;BME280;12243;42.708;23.310;2024-01-30T03:38:18;96964.19;;;0.01;75.92
16451;BME280;12243;42.708;23.310;2024-01-30T03:40:44;96963.28;;;0.06;75.64
16451;BME280;12243;42.708;23.310;2024-01-30T03:43:11;96961.66;;;0.01;75.73
16451;BME280;12243;42.708;23.310;2024-01-30T03:45:38;96962.28;;;0.21;74.52
16451;BME280;12243;42.708;23.310;2024-01-30T03:48:07;96957.25;;;0.10;73.96
16451;BME280;12243;42.708;23.310;2024-01-30T03:50:34;96959.06;;;0.02;74.47
16451;BME280;12243;42.708;23.310;2024-01-30T03:53:01;96955.75;;;-0.11;74.54
16451;BME280;12243;42.708;23.310;2024-01-30T03:55:28;96960.88;;;-0.11;74.70
16451;BME280;12243;42.708;23.310;2024-01-30T03:57:54;96960.16;;;-0.20;75.05
16451;BME280;12243;42.708;23.310;2024-01-30T04:00:21;96960.97;;;-0.17;75.36
16451;BME280;12243;42.708;23.310;2024-01-30T04:02:48;96954.06;;;-0.12;74.42
16451;BME280;12243;42.708;23.310;2024-01-30T04:05:17;96958.34;;;-0.12;74.31
16451;BME280;12243;42.708;23.310;2024-01-30T04:07:44;96961.03;;;-0.25;74.81
16451;BME280;12243;42.708;23.310;2024-01-30T04:10:11;96957.72;;;-0.34;75.20
16451;BME280;12243;42.708;23.310;2024-01-30T04:12:38;96967.94;;;-0.31;75.32
16451;BME280;12243;42.708;23.310;2024-01-30T04:15:05;96958.56;;;-0.35;75.34
16451;BME280;12243;42.708;23.310;2024-01-30T04:17:33;96954.38;;;-0.42;75.81
16451;BME280;12243;42.708;23.310;2024-01-30T04:19:59;96957.84;;;-0.48;75.96
16451;BME280;12243;42.708;23.310;2024-01-30T04:22:28;96953.63;;;-0.52;76.55
16451;BME280;12243;42.708;23.310;2024-01-30T04:24:54;96955.19;;;-0.39;75.65
16451;BME280;12243;42.708;23.310;2024-01-30T04:27:21;96961.28;;;-0.51;75.99
16451;BME280;12243;42.708;23.310;2024-01-30T04:29:48;96968.06;;;-0.50;75.90
16451;BME280;12243;42.708;23.310;2024-01-30T04:32:15;96962.97;;;-0.50;75.64
16451;BME280;12243;42.708;23.310;2024-01-30T04:34:42;96973.31;;;-0.62;76.20
16451;BME280;12243;42.708;23.310;2024-01-30T04:37:09;96974.94;;;-0.53;76.64
16451;BME280;12243;42.708;23.310;2024-01-30T04:39:37;96968.06;;;-0.45;76.30
16451;BME280;12243;42.708;23.310;2024-01-30T04:42:04;96971.53;;;-0.54;75.77
16451;BME280;12243;42.708;23.310;2024-01-30T04:44:31;96979.28;;;-0.61;76.79
16451;BME280;12243;42.708;23.310;2024-01-30T04:46:58;96973.31;;;-0.63;76.45
16451;BME280;12243;42.708;23.310;2024-01-30T04:49:26;96979.25;;;-0.58;76.17
16451;BME280;12243;42.708;23.310;2024-01-30T04:51:54;96986.94;;;-0.58;76.56
16451;BME280;12243;42.708;23.310;2024-01-30T04:54:21;96992.97;;;-0.65;77.28
16451;BME280;12243;42.708;23.310;2024-01-30T04:56:49;96992.94;;;-0.67;77.59
16451;BME280;12243;42.708;23.310;2024-01-30T04:59:16;96993.78;;;-0.62;77.62
16451;BME280;12243;42.708;23.310;2024-01-30T05:01:43;96996.28;;;-0.57;77.23
16451;BME280;12243;42.708;23.310;2024-01-30T05:04:10;96997.16;;;-0.60;77.34
16451;BME280;12243;42.708;23.310;2024-01-30T05:06:37;96997.25;;;-0.69;78.12
16451;BME280;12243;42.708;23.310;2024-01-30T05:09:04;96995.59;;;-0.78;78.99
16451;BME280;12243;42.708;23.310;2024-01-30T05:11:31;97002.28;;;-0.63;78.82
16451;BME280;12243;42.708;23.310;2024-01-30T05:13:59;96992.91;;;-0.59;78.44
16451;BME280;12243;42.708;23.310;2024-01-30T05:16:26;96998.09;;;-0.68;78.79
16451;BME280;12243;42.708;23.310;2024-01-30T05:18:53;96997.25;;;-0.72;78.96
16451;BME280;12243;42.708;23.310;2024-01-30T05:21:20;97001.47;;;-0.65;78.57
16451;BME280;12243;42.708;23.310;2024-01-30T05:23:47;96997.28;;;-0.75;79.16
16451;BME280;12243;42.708;23.310;2024-01-30T05:26:14;97002.34;;;-0.66;79.35
16451;BME280;12243;42.708;23.310;2024-01-30T05:28:40;96996.25;;;-0.51;78.03
16451;BME280;12243;42.708;23.310;2024-01-30T05:31:11;97000.56;;;-0.58;78.54
16451;BME280;12243;42.708;23.310;2024-01-30T05:33:38;96998.84;;;-0.56;77.35
16451;BME280;12243;42.708;23.310;2024-01-30T05:36:05;96996.34;;;-0.62;77.97
16451;BME280;12243;42.708;23.310;2024-01-30T05:38:32;96993.81;;;-0.65;78.41
16451;BME280;12243;42.708;23.310;2024-01-30T05:40:59;96995.41;;;-0.52;78.16
16451;BME280;12243;42.708;23.310;2024-01-30T05:43:25;96997.91;;;-0.47;77.44
16451;BME280;12243;42.708;23.310;2024-01-30T05:45:52;97000.53;;;-0.52;77.11
16451;BME280;12243;42.708;23.310;2024-01-30T05:48:21;97002.25;;;-0.57;77.44
16451;BME280;12243;42.708;23.310;2024-01-30T05:50:47;96998.88;;;-0.59;76.83
16451;BME280;12243;42.708;23.310;2024-01-30T05:53:14;96997.97;;;-0.56;76.62
16451;BME280;12243;42.708;23.310;2024-01-30T05:55:41;96997.06;;;-0.46;75.13
16451;BME280;12243;42.708;23.310;2024-01-30T05:58:08;96991.19;;;-0.59;75.55
16451;BME280;12243;42.708;23.310;2024-01-30T06:00:35;96986.81;;;-0.44;75.11
16451;BME280;12243;42.708;23.310;2024-01-30T06:03:02;97002.25;;;-0.57;74.83
16451;BME280;12243;42.708;23.310;2024-01-30T06:05:30;97004.81;;;-0.52;74.20
16451;BME280;12243;42.708;23.310;2024-01-30T06:07:57;96999.75;;;-0.61;74.28
16451;BME280;12243;42.708;23.310;2024-01-30T06:10:24;97003.16;;;-0.64;74.38
16451;BME280;12243;42.708;23.310;2024-01-30T06:12:51;97002.34;;;-0.70;74.09
16451;BME280;12243;42.708;23.310;2024-01-30T06:15:18;97000.66;;;-0.70;74.18
16451;BME280;12243;42.708;23.310;2024-01-30T06:17:44;97010.81;;;-0.61;74.12
16451;BME280;12243;42.708;23.310;2024-01-30T06:20:12;97017.72;;;-0.69;73.64
16451;BME280;12243;42.708;23.310;2024-01-30T06:22:40;97009.72;;;-0.29;84.96
16451;BME280;12243;42.708;23.310;2024-01-30T06:25:07;97006.19;;;-0.16;78.37
16451;BME280;12243;42.708;23.310;2024-01-30T06:27:34;97010.34;;;-0.06;73.52
16451;BME280;12243;42.708;23.310;2024-01-30T06:30:01;97008.69;;;-0.10;73.86
16451;BME280;12243;42.708;23.310;2024-01-30T06:32:28;97009.25;;;0.17;72.42
16451;BME280;12243;42.708;23.310;2024-01-30T06:34:59;97008.38;;;0.21;72.53
16451;BME280;12243;42.708;23.310;2024-01-30T06:37:26;97001.34;;;0.38;71.29
16451;BME280;12243;42.708;23.310;2024-01-30T06:39:54;97009.09;;;0.34;70.93
16451;BME280;12243;42.708;23.310;2024-01-30T06:42:21;97012.31;;;0.51;71.34
16451;BME280;12243;42.708;23.310;2024-01-30T06:44:48;97006.97;;;0.68;70.30
16451;BME280;12243;42.708;23.310;2024-01-30T06:47:15;97000.94;;;0.72;69.95
16451;BME280;12243;42.708;23.310;2024-01-30T06:49:42;97007.69;;;0.79;68.76
16451;BME280;12243;42.708;23.310;2024-01-30T06:52:09;97002.47;;;0.85;68.39
16451;BME280;12243;42.708;23.310;2024-01-30T06:54:36;97012.78;;;0.82;67.97
16451;BME280;12243;42.708;23.310;2024-01-30T06:57:05;96999.84;;;0.90;67.13
16451;BME280;12243;42.708;23.310;2024-01-30T06:59:34;97009.16;;;0.99;67.56
16451;BME280;12243;42.708;23.310;2024-01-30T07:02:01;97014.06;;;1.14;67.53
16451;BME280;12243;42.708;23.310;2024-01-30T07:04:27;97015.81;;;1.12;66.64
16451;BME280;12243;42.708;23.310;2024-01-30T07:06:54;97010.53;;;1.21;66.35
16451;BME280;12243;42.708;23.310;2024-01-30T07:09:21;97020.88;;;1.16;67.08
16451;BME280;12243;42.708;23.310;2024-01-30T07:11:48;97010.41;;;1.29;66.17
16451;BME280;12243;42.708;23.310;2024-01-30T07:14:16;97017.00;;;1.45;65.78
16451;BME280;12243;42.708;23.310;2024-01-30T07:16:44;97019.63;;;1.43;66.56
16451;BME280;12243;42.708;23.310;2024-01-30T07:19:11;97010.91;;;1.54;66.46
16451;BME280;12243;42.708;23.310;2024-01-30T07:21:37;97009.75;;;1.70;65.94
16451;BME280;12243;42.708;23.310;2024-01-30T07:24:06;97014.78;;;1.78;64.15
16451;BME280;12243;42.708;23.310;2024-01-30T07:26:33;97023.84;;;1.99;64.14
16451;BME280;12243;42.708;23.310;2024-01-30T07:29:01;97015.88;;;2.14;63.96
16451;BME280;12243;42.708;23.310;2024-01-30T07:31:30;97019.09;;;2.25;63.31
16451;BME280;12243;42.708;23.310;2024-01-30T07:33:56;97012.00;;;2.38;61.97
16451;BME280;12243;42.708;23.310;2024-01-30T07:36:23;97011.81;;;2.47;61.53
16451;BME280;12243;42.708;23.310;2024-01-30T07:38:50;97009.84;;;2.61;61.04
16451;BME280;12243;42.708;23.310;2024-01-30T07:41:19;97007.22;;;2.63;61.21
16451;BME280;12243;42.708;23.310;2024-01-30T07:43:46;97003.41;;;2.82;59.59
16451;BME280;12243;42.708;23.310;2024-01-30T07:46:13;97005.34;;;2.71;59.25
16451;BME280;12243;42.708;23.310;2024-01-30T07:48:41;97007.84;;;2.74;59.81
16451;BME280;12243;42.708;23.310;2024-01-30T07:51:08;97007.13;;;2.68;58.97
16451;BME280;12243;42.708;23.310;2024-01-30T07:53:35;96998.22;;;2.84;58.73
16451;BME280;12243;42.708;23.310;2024-01-30T07:56:02;96998.94;;;2.91;58.46
16451;BME280;12243;42.708;23.310;2024-01-30T07:58:29;96998.41;;;3.15;58.18
16451;BME280;12243;42.708;23.310;2024-01-30T08:00:56;97004.22;;;3.23;57.29
16451;BME280;12243;42.708;23.310;2024-01-30T08:03:34;97003.41;;;2.82;57.49
16451;BME280;12243;42.708;23.310;2024-01-30T08:06:04;96994.25;;;2.69;57.99
16451;BME280;12243;42.708;23.310;2024-01-30T08:08:32;96995.09;;;2.70;58.26
16451;BME280;12243;42.708;23.310;2024-01-30T08:10:59;96999.72;;;2.52;58.07
16451;BME280;12243;42.708;23.310;2024-01-30T08:13:25;97006.66;;;2.49;58.93
16451;BME280;12243;42.708;23.310;2024-01-30T08:15:52;97000.34;;;2.65;58.42
16451;BME280;12243;42.708;23.310;2024-01-30T08:18:19;96999.56;;;2.61;58.26
16451;BME280;12243;42.708;23.310;2024-01-30T08:20:46;97000.91;;;2.78;58.29
16451;BME280;12243;42.708;23.310;2024-01-30T08:23:14;97008.63;;;2.79;58.09
16451;BME280;12243;42.708;23.310;2024-01-30T08:25:41;97007.44;;;2.93;57.70
16451;BME280;12243;42.708;23.310;2024-01-30T08:28:08;97005.09;;;2.82;57.54
16451;BME280;12243;42.708;23.310;2024-01-30T08:30:35;97009.22;;;2.47;58.49
16451;BME280;12243;42.708;23.310;2024-01-30T08:33:02;97001.91;;;2.72;58.65
16451;BME280;12243;42.708;23.310;2024-01-30T08:35:29;97011.13;;;2.82;58.44
16451;BME280;12243;42.708;23.310;2024-01-30T08:37:59;97014.25;;;2.97;58.64
16451;BME280;12243;42.708;23.310;2024-01-30T08:40:27;97014.56;;;3.20;58.09
16451;BME280;12243;42.708;23.310;2024-01-30T08:42:55;97011.81;;;3.29;58.11
16451;BME280;12243;42.708;23.310;2024-01-30T08:45:22;97003.63;;;3.49;57.50
16451;BME280;12243;42.708;23.310;2024-01-30T08:47:49;97000.66;;;3.66;57.93
16451;BME280;12243;42.708;23.310;2024-01-30T08:50:16;97016.53;;;3.48;58.21
16451;BME280;12243;42.708;23.310;2024-01-30T08:52:43;97014.19;;;3.39;58.46
16451;BME280;12243;42.708;23.310;2024-01-30T08:55:10;97020.69;;;3.53;58.94
16451;BME280;12243;42.708;23.310;2024-01-30T08:57:38;97017.34;;;3.50;58.97
16451;BME280;12243;42.708;23.310;2024-01-30T09:00:06;97023.41;;;3.47;59.64
16451;BME280;12243;42.708;23.310;2024-01-30T09:02:34;97024.22;;;3.49;58.52
16451;BME280;12243;42.708;23.310;2024-01-30T09:05:01;97019.78;;;3.19;59.44
16451;BME280;12243;42.708;23.310;2024-01-30T09:07:28;97030.78;;;2.85;60.64
16451;BME280;12243;42.708;23.310;2024-01-30T09:09:55;97032.06;;;2.64;61.97
16451;BME280;12243;42.708;23.310;2024-01-30T09:12:22;97025.56;;;2.46;63.20
16451;BME280;12243;42.708;23.310;2024-01-30T09:14:50;97022.97;;;2.48;63.10
16451;BME280;12243;42.708;23.310;2024-01-30T09:17:17;97018.50;;;2.56;63.04
16451;BME280;12243;42.708;23.310;2024-01-30T09:19:45;97019.28;;;2.59;62.90
16451;BME280;12243;42.708;23.310;2024-01-30T09:22:12;97032.66;;;2.77;62.99
16451;BME280;12243;42.708;23.310;2024-01-30T09:24:40;97021.25;;;2.90;61.72
16451;BME280;12243;42.708;23.310;2024-01-30T09:27:06;97019.75;;;2.78;61.58
16451;BME280;12243;42.708;23.310;2024-01-30T09:29:33;97008.78;;;2.70;62.48
16451;BME280;12243;42.708;23.310;2024-01-30T09:32:04;97002.88;;;2.67;62.55
16451;BME280;12243;42.708;23.310;2024-01-30T09:34:31;97012.81;;;2.83;62.21
16451;BME280;12243;42.708;23.310;2024-01-30T09:36:58;97010.72;;;3.01;61.50
16451;BME280;12243;42.708;23.310;2024-01-30T09:39:25;97007.06;;;3.11;61.37
16451;BME280;12243;42.708;23.310;2024-01-30T09:41:57;96995.94;;;3.10;60.57
16451;BME280;12243;42.708;23.310;2024-01-30T09:44:29;96994.28;;;3.08;61.51
16451;BME280;12243;42.708;23.310;2024-01-30T09:46:56;97003.75;;;3.06;60.19
16451;BME280;12243;42.708;23.310;2024-01-30T09:49:32;96995.00;;;3.13;60.74
16451;BME280;12243;42.708;23.310;2024-01-30T09:51:59;97001.44;;;2.94;60.07
16451;BME280;12243;42.708;23.310;2024-01-30T09:54:28;96996.16;;;2.58;60.45
16451;BME280;12243;42.708;23.310;2024-01-30T09:56:56;96988.03;;;2.37;60.99
16451;BME280;12243;42.708;23.310;2024-01-30T09:59:23;96994.38;;;2.18;62.00
16451;BME280;12243;42.708;23.310;2024-01-30T10:01:51;96988.34;;;2.19;63.01
16451;BME280;12243;42.708;23.310;2024-01-30T10:04:18;96996.25;;;2.08;63.21
16451;BME280;12243;42.708;23.310;2024-01-30T10:06:47;96985.03;;;2.14;63.54
16451;BME280;12243;42.708;23.310;2024-01-30T10:09:14;96981.53;;;2.18;63.13
16451;BME280;12243;42.708;23.310;2024-01-30T10:11:41;96988.69;;;2.01;63.25
16451;BME280;12243;42.708;23.310;2024-01-30T10:14:08;96974.91;;;2.05;63.09
16451;BME280;12243;42.708;23.310;2024-01-30T10:16:35;96981.03;;;2.43;62.59
16451;BME280;12243;42.708;23.310;2024-01-30T10:19:01;96984.00;;;2.66;62.41
16451;BME280;12243;42.708;23.310;2024-01-30T10:21:29;96974.75;;;2.98;60.38
16451;BME280;12243;42.708;23.310;2024-01-30T10:23:59;96978.22;;;2.97;59.60
16451;BME280;12243;42.708;23.310;2024-01-30T10:26:26;96981.16;;;3.17;59.55
16451;BME280;12243;42.708;23.310;2024-01-30T10:28:55;96976.84;;;3.55;58.19
16451;BME280;12243;42.708;23.310;2024-01-30T10:31:21;96976.66;;;3.64;57.54
16451;BME280;12243;42.708;23.310;2024-01-30T10:33:49;96979.16;;;3.66;58.40
16451;BME280;12243;42.708;23.310;2024-01-30T10:36:17;96969.84;;;3.96;57.58
16451;BME280;12243;42.708;23.310;2024-01-30T10:38:45;96973.13;;;4.34;56.52
16451;BME280;12243;42.708;23.310;2024-01-30T10:41:15;96969.06;;;4.86;57.52
16451;BME280;12243;42.708;23.310;2024-01-30T10:43:52;96979.22;;;4.62;53.55
16451;BME280;12243;42.708;23.310;2024-01-30T10:46:26;96965.13;;;4.12;55.54
16451;BME280;12243;42.708;23.310;2024-01-30T10:48:57;96968.09;;;3.96;56.29
16451;BME280;12243;42.708;23.310;2024-01-30T10:51:26;96970.25;;;3.79;56.49
16451;BME280;12243;42.708;23.310;2024-01-30T10:53:53;96980.53;;;3.80;58.04
16451;BME280;12243;42.708;23.310;2024-01-30T10:56:22;96954.03;;;3.75;57.95
16451;BME280;12243;42.708;23.310;2024-01-30T10:58:50;96955.53;;;3.50;58.12
16451;BME280;12243;42.708;23.310;2024-01-30T11:01:18;96954.50;;;3.57;58.44
16451;BME280;12243;42.708;23.310;2024-01-30T11:03:51;96962.72;;;3.71;58.29
16451;BME280;12243;42.708;23.310;2024-01-30T11:06:18;96963.00;;;3.61;57.69
16451;BME280;12243;42.708;23.310;2024-01-30T11:08:45;96953.03;;;3.47;58.29
16451;BME280;12243;42.708;23.310;2024-01-30T11:11:12;96951.09;;;3.55;57.96
16451;BME280;12243;42.708;23.310;2024-01-30T11:13:40;96949.13;;;3.66;58.58
16451;BME280;12243;42.708;23.310;2024-01-30T11:16:11;96944.97;;;3.93;57.51
16451;BME280;12243;42.708;23.310;2024-01-30T11:18:38;96939.06;;;3.90;57.14
16451;BME280;12243;42.708;23.310;2024-01-30T11:21:05;96935.34;;;4.00;58.21
16451;BME280;12243;42.708;23.310;2024-01-30T11:23:34;96934.38;;;4.04;57.41
16451;BME280;12243;42.708;23.310;2024-01-30T11:26:01;96938.28;;;3.88;57.34
16451;BME280;12243;42.708;23.310;2024-01-30T11:28:32;96941.84;;;3.48;58.42
16451;BME280;12243;42.708;23.310;2024-01-30T11:31:04;96930.66;;;3.49;59.02
16451;BME280;12243;42.708;23.310;2024-01-30T11:33:32;96940.78;;;3.55;59.12
16451;BME280;12243;42.708;23.310;2024-01-30T11:36:00;96931.50;;;3.49;58.76
16451;BME280;12243;42.708;23.310;2024-01-30T11:38:28;96940.06;;;3.50;58.30
16451;BME280;12243;42.708;23.310;2024-01-30T11:40:55;96942.72;;;3.47;58.55
16451;BME280;12243;42.708;23.310;2024-01-30T11:43:23;96943.00;;;3.34;59.29
16451;BME280;12243;42.708;23.310;2024-01-30T11:45:50;96938.03;;;3.28;59.46
16451;BME280;12243;42.708;23.310;2024-01-30T11:48:19;96928.06;;;3.15;60.10
16451;BME280;12243;42.708;23.310;2024-01-30T11:50:46;96937.41;;;3.17;60.07
16451;BME280;12243;42.708;23.310;2024-01-30T11:53:14;96924.63;;;3.14;60.87
16451;BME280;12243;42.708;23.310;2024-01-30T11:55:42;96928.13;;;3.10;60.92
16451;BME280;12243;42.708;23.310;2024-01-30T11:58:18;96929.78;;;3.14;61.21
16451;BME280;12243;42.708;23.310;2024-01-30T12:00:53;96918.28;;;2.92;61.11
16451;BME280;12243;42.708;23.310;2024-01-30T12:03:23;96916.19;;;2.70;62.12
16451;BME280;12243;42.708;23.310;2024-01-30T12:05:55;96905.84;;;2.72;62.02
16451;BME280;12243;42.708;23.310;2024-01-30T12:08:22;96902.03;;;2.90;61.71
16451;BME280;12243;42.708;23.310;2024-01-30T12:10:55;96894.38;;;2.86;61.33
16451;BME280;12243;42.708;23.310;2024-01-30T12:13:22;96888.34;;;2.88;61.04
16451;BME280;12243;42.708;23.310;2024-01-30T12:15:49;96890.72;;;2.97;61.01
16451;BME280;12243;42.708;23.310;2024-01-30T12:18:18;96888.72;;;3.08;61.37
16451;BME280;12243;42.708;23.310;2024-01-30T12:20:56;96893.22;;;3.36;60.23
16451;BME280;12243;42.708;23.310;2024-01-30T12:23:23;96879.78;;;3.24;60.16
16451;BME280;12243;42.708;23.310;2024-01-30T12:25:51;96879.16;;;3.49;60.08
16451;BME280;12243;42.708;23.310;2024-01-30T12:28:19;96875.34;;;3.62;58.32
16451;BME280;12243;42.708;23.310;2024-01-30T12:30:46;96869.00;;;3.43;58.99
16451;BME280;12243;42.708;23.310;2024-01-30T12:33:16;96879.03;;;3.52;59.45
16451;BME280;12243;42.708;23.310;2024-01-30T12:35:46;96875.00;;;3.43;59.17
16451;BME280;12243;42.708;23.310;2024-01-30T12:38:14;96878.69;;;3.33;59.79
16451;BME280;12243;42.708;23.310;2024-01-30T12:40:41;96862.47;;;3.29;59.66
16451;BME280;12243;42.708;23.310;2024-01-30T12:43:07;96870.38;;;3.22;59.49
16451;BME280;12243;42.708;23.310;2024-01-30T12:45:36;96865.66;;;3.39;60.21
16451;BME280;12243;42.708;23.310;2024-01-30T12:48:03;96863.44;;;3.58;59.54
16451;BME280;12243;42.708;23.310;2024-01-30T12:50:30;96861.72;;;3.58;58.88
16451;BME280;12243;42.708;23.310;2024-01-30T12:52:58;96859.91;;;3.62;59.30
16451;BME280;12243;42.708;23.310;2024-01-30T12:55:25;96857.72;;;3.79;58.95
16451;BME280;12243;42.708;23.310;2024-01-30T12:57:54;96860.13;;;3.86;58.29
16451;BME280;12243;42.708;23.310;2024-01-30T13:00:21;96849.97;;;3.81;58.83